Time;durP1;ratioP1;P1;durP2;ratioP2;P2;SDS_P1;SDS_P2;PMS_P1;PMS_P2;Temp;Humidity;BMP_temperature;BMP_pressure;BME280_temperature;BME280_humidity;BME280_pressure;Samples;Min_cycle;Max_cycle;Signal;HPM_P1;HPM_P2
2021/04/15 00:01:41;;;;;;;9.07;8.15;;;;;;;0.34;68.28;97286.84;5073257;28;20041;-76
2021/04/15 00:04:09;;;;;;;10.85;9.20;;;;;;;0.35;68.26;97292.84;5072994;28;20380;-76
2021/04/15 00:06:36;;;;;;;10.13;9.10;;;;;;;0.33;68.52;97289.56;5072946;28;20055;-76
2021/04/15 00:09:11;;;;;;;9.18;8.27;;;;;;;0.30;68.65;97290.66;5071784;28;20044;-76
2021/04/15 00:11:39;;;;;;;10.43;8.93;;;;;;;0.30;68.54;97287.25;5073446;28;20036;-76
2021/04/15 00:14:17;;;;;;;12.13;8.77;;;;;;;0.29;68.63;97280.47;5072694;28;20028;-76
2021/04/15 00:16:44;;;;;;;9.45;8.45;;;;;;;0.27;68.44;97284.94;5073018;28;20035;-76
2021/04/15 00:19:12;;;;;;;9.18;7.65;;;;;;;0.25;68.52;97282.47;5073091;28;20033;-76
2021/04/15 00:21:39;;;;;;;8.73;7.93;;;;;;;0.25;68.66;97281.66;5072673;28;20037;-76
2021/04/15 00:24:05;;;;;;;9.70;7.97;;;;;;;0.25;68.74;97290.22;5071598;28;20049;-76
2021/04/15 00:26:31;;;;;;;8.73;7.53;;;;;;;0.27;68.79;97290.91;5073340;28;20063;-76
2021/04/15 00:28:58;;;;;;;8.32;7.45;;;;;;;0.26;68.74;97281.53;5071440;28;20393;-76
2021/04/15 00:31:26;;;;;;;9.18;7.82;;;;;;;0.26;68.71;97291.06;5054436;28;20052;-76
2021/04/15 00:33:52;;;;;;;7.75;7.00;;;;;;;0.24;68.77;97280.88;5071940;28;20048;-76
2021/04/15 00:36:20;;;;;;;8.43;7.47;;;;;;;0.22;68.82;97279.38;5072423;28;20043;-76
2021/04/15 00:38:48;;;;;;;8.02;7.25;;;;;;;0.23;68.74;97284.38;5055370;28;20048;-76
2021/04/15 00:41:15;;;;;;;7.45;6.68;;;;;;;0.23;68.55;97280.97;5076159;28;20401;-76
2021/04/15 00:43:45;;;;;;;7.93;7.13;;;;;;;0.20;68.86;97276.91;5076174;28;20043;-77
2021/04/15 00:46:23;;;;;;;8.90;6.70;;;;;;;0.16;68.73;97275.53;5076215;28;20052;-77
2021/04/15 00:48:50;;;;;;;10.18;6.78;;;;;;;0.10;68.60;97281.22;5076179;28;20036;-76
2021/04/15 00:51:34;;;;;;;9.40;7.15;;;;;;;0.06;69.55;97278.09;5075622;28;20029;-77
2021/04/15 00:54:28;;;;;;;8.98;8.07;;;;;;;0.05;69.38;97284.19;5074843;28;20396;-76
2021/04/15 00:56:55;;;;;;;9.75;8.02;;;;;;;0.06;69.05;97280.66;5056904;28;20488;-78
2021/04/15 00:59:21;;;;;;;9.15;8.25;;;;;;;0.09;69.05;97277.03;5075544;28;20052;-77
2021/04/15 01:01:47;;;;;;;11.30;8.23;;;;;;;0.11;69.26;97269.97;5074868;28;20040;-78
2021/04/15 01:04:15;;;;;;;11.15;8.15;;;;;;;0.11;68.95;97272.56;5076153;28;20043;-77
2021/04/15 01:06:41;;;;;;;8.73;7.18;;;;;;;0.11;68.93;97272.56;5058115;28;20037;-77
2021/04/15 01:09:07;;;;;;;9.88;8.88;;;;;;;0.10;69.01;97273.50;5075678;28;20045;-77
2021/04/15 01:11:57;;;;;;;11.02;8.70;;;;;;;0.09;69.55;97266.72;5075766;28;20040;-77
2021/04/15 01:14:31;;;;;;;9.93;8.82;;;;;;;0.09;69.22;97277.84;5075504;28;20044;-77
2021/04/15 01:17:07;;;;;;;9.82;8.80;;;;;;;0.06;69.25;97269.53;5064412;28;20412;-77
2021/04/15 01:19:42;;;;;;;10.75;8.65;;;;;;;0.05;69.30;97267.91;5075395;28;20047;-78
2021/04/15 01:22:51;;;;;;;9.05;8.23;;;;;;;0.05;69.57;97279.03;5074675;28;20040;-78
2021/04/15 01:25:43;;;;;;;14.60;8.75;;;;;;;0.04;69.30;97279.16;5075506;28;20043;-76
2021/04/15 01:28:10;;;;;;;10.23;9.23;;;;;;;0.01;69.28;97267.34;5074555;28;20048;-76
2021/04/15 01:30:48;;;;;;;9.63;8.73;;;;;;;0.01;69.33;97271.72;5074567;28;20059;-76
2021/04/15 01:33:32;;;;;;;9.45;8.55;;;;;;;-0.02;69.27;97273.59;5074735;28;20044;-77
2021/04/15 01:36:25;;;;;;;8.95;8.05;;;;;;;-0.06;69.42;97272.22;5063120;28;20044;-79
2021/04/15 01:38:57;;;;;;;9.60;7.80;;;;;;;-0.12;68.82;97267.59;5066720;28;20051;-79
2021/04/15 01:41:31;;;;;;;8.57;7.70;;;;;;;-0.17;68.73;97274.88;5074657;28;20049;-79
2021/04/15 01:44:09;;;;;;;8.68;7.88;;;;;;;-0.22;68.77;97261.59;5075299;28;20040;-79
2021/04/15 01:46:38;;;;;;;9.55;8.55;;;;;;;-0.25;68.79;97267.81;5075399;28;20036;-78
2021/04/15 01:49:07;;;;;;;10.20;8.10;;;;;;;-0.28;69.09;97268.06;5075092;28;20040;-79
2021/04/15 01:51:40;;;;;;;9.20;8.30;;;;;;;-0.30;68.94;97264.78;5074140;28;20044;-80
2021/04/15 01:54:12;;;;;;;9.45;8.55;;;;;;;-0.34;68.73;97268.56;5075735;28;20036;-78
2021/04/15 01:56:41;;;;;;;10.25;8.77;;;;;;;-0.37;68.70;97268.03;5074485;28;20052;-78
2021/04/15 01:59:17;;;;;;;9.55;8.65;;;;;;;-0.42;68.89;97274.41;5074733;28;20028;-78
2021/04/15 02:01:48;;;;;;;8.05;7.25;;;;;;;-0.46;68.91;97272.22;5074593;28;20381;-77
2021/04/15 02:04:28;;;;;;;10.55;9.48;;;;;;;-0.51;69.24;97259.69;5075055;28;20044;-78
2021/04/15 02:07:01;;;;;;;9.73;8.73;;;;;;;-0.55;68.74;97262.66;5074183;28;20045;-77
2021/04/15 02:09:29;;;;;;;10.40;9.32;;;;;;;-0.59;68.85;97263.84;5074780;28;20048;-76
2021/04/15 02:12:05;;;;;;;9.27;8.35;;;;;;;-0.62;68.89;97270.06;5074596;28;20381;-77
2021/04/15 02:14:35;;;;;;;9.52;8.35;;;;;;;-0.63;69.11;97263.28;5074777;28;20031;-79
2021/04/15 02:17:06;;;;;;;9.82;8.82;;;;;;;-0.66;68.90;97269.50;5074719;28;20043;-78
2021/04/15 02:19:38;;;;;;;8.65;7.85;;;;;;;-0.69;68.97;97258.66;5074850;28;20035;-78
2021/04/15 02:22:30;;;;;;;9.02;8.13;;;;;;;-0.72;68.79;97258.91;5074944;28;20047;-76
2021/04/15 02:25:15;;;;;;;7.93;7.13;;;;;;;-0.76;68.58;97266.06;5064593;28;20492;-76
2021/04/15 02:27:54;;;;;;;8.13;6.68;;;;;;;-0.79;68.76;97261.16;5074293;28;20032;-76
2021/04/15 02:30:29;;;;;;;8.88;7.97;;;;;;;-0.76;69.03;97265.25;5074445;28;20036;-76
2021/04/15 02:33:00;;;;;;;9.13;7.53;;;;;;;-0.79;68.91;97271.47;5058900;28;20040;-76
2021/04/15 02:35:33;;;;;;;8.27;6.82;;;;;;;-0.82;68.79;97264.81;5074839;28;20043;-76
2021/04/15 02:38:01;;;;;;;8.57;6.75;;;;;;;-0.83;68.72;97263.16;5074036;28;20049;-76
2021/04/15 02:40:36;;;;;;;8.07;7.28;;;;;;;-0.85;68.97;97272.78;5074297;28;20477;-76
2021/04/15 02:43:10;;;;;;;9.02;7.82;;;;;;;-0.89;68.85;97268.00;5056180;28;20037;-76
2021/04/15 02:45:43;;;;;;;8.27;7.40;;;;;;;-0.95;68.57;97269.31;5074093;28;20036;-76
2021/04/15 02:48:15;;;;;;;11.25;7.70;;;;;;;-0.99;68.64;97265.38;5073656;28;20044;-77
2021/04/15 02:50:43;;;;;;;8.25;6.75;;;;;;;-1.04;68.72;97267.50;5074118;28;20036;-76
2021/04/15 02:53:17;;;;;;;9.13;7.20;;;;;;;-1.08;68.86;97261.78;5073458;28;20053;-76
2021/04/15 02:55:50;;;;;;;7.75;6.70;;;;;;;-1.11;68.53;97256.91;5072706;28;20059;-77
2021/04/15 02:58:23;;;;;;;7.88;7.07;;;;;;;-1.12;68.99;97259.59;5073475;28;20041;-76
2021/04/15 03:00:52;;;;;;;7.68;6.88;;;;;;;-1.13;68.80;97257.97;5072717;28;20041;-77
2021/04/15 03:03:20;;;;;;;9.48;6.90;;;;;;;-1.16;68.90;97251.28;5072680;28;20040;-77
2021/04/15 03:06:03;;;;;;;7.72;7.03;;;;;;;-1.17;68.69;97256.59;5073318;28;20040;-77
2021/04/15 03:08:30;;;;;;;7.55;6.75;;;;;;;-1.21;68.63;97252.63;5073373;28;20033;-77
2021/04/15 03:11:04;;;;;;;7.75;6.97;;;;;;;-1.24;68.74;97263.97;5073352;28;20388;-77
2021/04/15 03:13:35;;;;;;;9.90;7.40;;;;;;;-1.28;68.96;97257.44;5073619;28;20041;-77
2021/04/15 03:16:04;;;;;;;7.07;6.35;;;;;;;-1.31;68.94;97239.69;5073709;28;20032;-76
2021/04/15 03:18:44;;;;;;;7.10;6.40;;;;;;;-1.31;69.12;97249.97;5058078;28;20407;-76
2021/04/15 03:21:23;;;;;;;7.53;6.68;;;;;;;-1.31;69.63;97249.97;5072728;28;20048;-79
2021/04/15 03:24:07;;;;;;;6.82;5.82;;;;;;;-1.31;69.82;97255.91;5073217;28;20044;-78
2021/04/15 03:26:58;;;;;;;8.75;7.00;;;;;;;-1.32;69.54;97253.50;5073418;28;20039;-77
2021/04/15 03:29:29;;;;;;;7.50;6.35;;;;;;;-1.34;69.24;97243.31;5064457;28;20047;-77
2021/04/15 03:32:27;;;;;;;7.15;6.45;;;;;;;-1.33;69.38;97251.84;5073443;28;20047;-77
2021/04/15 03:35:23;;;;;;;8.00;6.40;;;;;;;-1.33;69.50;97260.38;5064694;28;20039;-77
2021/04/15 03:37:55;;;;;;;8.63;7.22;;;;;;;-1.33;69.30;97254.41;5073669;28;20047;-77
2021/04/15 03:40:25;;;;;;;7.82;7.03;;;;;;;-1.32;69.08;97245.78;5073260;28;20040;-78
2021/04/15 03:42:58;;;;;;;7.90;7.03;;;;;;;-1.33;69.30;97252.66;5072981;28;20044;-78
2021/04/15 03:45:33;;;;;;;7.32;6.60;;;;;;;-1.35;69.35;97251.16;5073264;28;20036;-78
2021/04/15 03:48:03;;;;;;;8.20;7.40;;;;;;;-1.37;69.11;97251.25;5071982;28;20048;-78
2021/04/15 03:50:51;;;;;;;6.32;5.72;;;;;;;-1.39;69.52;97252.34;5072478;28;20473;-78
2021/04/15 03:53:29;;;;;;;7.97;6.00;;;;;;;-1.44;69.57;97256.09;5065936;28;20068;-78
2021/04/15 03:56:02;;;;;;;7.53;5.80;;;;;;;-1.45;69.96;97249.31;5072658;28;20044;-78
2021/04/15 03:58:43;;;;;;;6.32;5.50;;;;;;;-1.46;69.79;97242.53;5072751;28;20037;-78
2021/04/15 04:01:21;;;;;;;7.13;5.35;;;;;;;-1.48;70.71;97254.69;5073515;28;20457;-78
2021/04/15 04:03:59;;;;;;;7.00;5.47;;;;;;;-1.49;70.42;97244.53;5073128;28;20132;-77
2021/04/15 04:06:27;;;;;;;6.03;5.43;;;;;;;-1.54;69.75;97234.63;5059548;28;20036;-77
2021/04/15 04:09:01;;;;;;;7.40;5.78;;;;;;;-1.55;69.84;97239.91;5054313;28;20052;-76
2021/04/15 04:11:32;;;;;;;7.20;5.65;;;;;;;-1.57;70.46;97247.72;5073007;28;20463;-75
2021/04/15 04:14:01;;;;;;;8.35;5.95;;;;;;;-1.59;70.15;97243.66;5056400;28;20043;-76
2021/04/15 04:16:39;;;;;;;7.10;5.50;;;;;;;-1.60;71.02;97249.72;5076661;28;20397;-76
2021/04/15 04:19:43;;;;;;;5.88;5.35;;;;;;;-1.59;71.05;97251.38;5076516;28;20037;-77
2021/04/15 04:22:16;;;;;;;5.10;4.40;;;;;;;-1.61;71.11;97250.66;5076754;28;20036;-76
2021/04/15 04:25:03;;;;;;;5.40;4.90;;;;;;;-1.60;71.02;97254.88;5076793;28;20045;-76
2021/04/15 04:27:41;;;;;;;7.90;5.18;;;;;;;-1.57;71.08;97260.59;5075629;28;20503;-77
2021/04/15 04:30:12;;;;;;;6.03;5.10;;;;;;;-1.56;70.60;97256.25;5076762;28;20055;-77
2021/04/15 04:32:41;;;;;;;5.95;4.93;;;;;;;-1.58;70.42;97258.13;5076287;28;20044;-77
2021/04/15 04:35:11;;;;;;;6.82;5.70;;;;;;;-1.59;70.30;97259.09;5076317;28;20039;-78
2021/04/15 04:37:47;;;;;;;7.80;5.25;;;;;;;-1.60;70.64;97262.56;5075538;28;20049;-78
2021/04/15 04:40:28;;;;;;;5.88;5.28;;;;;;;-1.61;70.43;97255.81;5045614;28;20392;-77
2021/04/15 04:43:00;;;;;;;6.80;5.60;;;;;;;-1.65;70.79;97258.63;5075510;28;20472;-76
2021/04/15 04:45:27;;;;;;;6.07;5.47;;;;;;;-1.66;70.36;97259.56;5076358;28;20025;-76
2021/04/15 04:48:16;;;;;;;5.18;4.65;;;;;;;-1.66;71.90;97264.72;5076207;28;20040;-77
2021/04/15 04:50:50;;;;;;;6.57;5.38;;;;;;;-1.64;71.12;97269.72;5076452;28;20040;-78
2021/04/15 04:53:24;;;;;;;;;;;;;;;-1.66;72.43;97269.84;5058281;28;20524;-79
2021/04/15 04:55:56;;;;;;;7.20;5.10;;;;;;;-1.64;70.85;97273.13;5075842;28;19917;-77
2021/04/15 04:58:23;;;;;;;6.28;5.13;;;;;;;-1.63;70.79;97264.44;5065228;28;20028;-77
2021/04/15 05:00:51;;;;;;;6.07;4.88;;;;;;;-1.59;71.16;97271.94;5075834;28;20062;-78
2021/04/15 05:03:25;;;;;;;5.35;4.60;;;;;;;-1.56;71.09;97271.69;5076147;28;20036;-77
2021/04/15 05:06:02;;;;;;;;;;;;;;;-1.55;72.60;97275.91;5076380;28;20032;-78
2021/04/15 05:08:48;;;;;;;5.68;4.68;;;;;;;-1.52;71.79;97273.09;5076101;28;19909;-76
2021/04/15 05:11:14;;;;;;;4.93;4.10;;;;;;;-1.25;71.17;97276.03;5075761;28;20032;-76
2021/04/15 05:13:41;;;;;;;4.63;4.22;;;;;;;-0.69;71.33;97285.22;5075814;28;20032;-78
2021/04/15 05:16:08;;;;;;;5.30;4.80;;;;;;;-0.07;71.05;97282.66;5076045;28;20044;-77
2021/04/15 05:18:35;;;;;;;6.00;4.40;;;;;;;0.43;70.21;97282.66;5076168;28;20037;-77
2021/04/15 05:21:21;;;;;;;4.32;3.65;;;;;;;0.92;67.98;97277.53;5075676;28;20035;-77
2021/04/15 05:24:12;;;;;;;4.72;4.22;;;;;;;1.40;66.87;97282.63;5075769;28;20044;-76
2021/04/15 05:26:41;;;;;;;7.25;3.92;;;;;;;1.92;68.56;97286.56;5058116;28;20036;-77
2021/04/15 05:29:14;;;;;;;6.00;3.20;;;;;;;2.37;67.42;97288.38;5075444;28;20473;-77
2021/04/15 05:31:43;;;;;;;4.30;3.60;;;;;;;2.73;66.99;97293.59;5075687;28;20040;-76
2021/04/15 05:34:26;;;;;;;4.07;3.38;;;;;;;3.00;65.13;97279.75;5057095;28;20044;-79
2021/04/15 05:36:58;;;;;;;3.83;3.50;;;;;;;3.29;64.92;97279.50;5075686;28;20408;-76
2021/04/15 05:39:25;;;;;;;4.20;3.03;;;;;;;3.59;65.33;97292.97;5075851;28;20041;-76
2021/04/15 05:42:06;;;;;;;3.83;3.42;;;;;;;3.84;62.58;97281.78;5074767;28;20370;-76
2021/04/15 05:44:38;;;;;;;3.67;2.97;;;;;;;4.01;62.20;97277.50;5075342;28;20044;-76
2021/04/15 05:47:12;;;;;;;4.10;3.08;;;;;;;4.20;62.46;97286.81;5075143;28;20389;-76
2021/04/15 05:49:49;;;;;;;4.60;3.17;;;;;;;4.44;61.33;97277.47;5075498;28;20041;-76
2021/04/15 05:52:30;;;;;;;4.15;3.03;;;;;;;4.62;58.46;97251.34;5074994;28;20484;-76
2021/04/15 05:55:02;;;;;;;7.38;3.03;;;;;;;4.80;62.06;97275.41;5074912;28;20040;-76
2021/04/15 05:57:34;;;;;;;5.55;3.17;;;;;;;4.93;59.98;97274.13;5075797;28;20484;-76
2021/04/15 06:00:11;;;;;;;6.35;3.33;;;;;;;5.13;58.34;97259.84;5074930;28;20361;-76
2021/04/15 06:02:59;;;;;;;7.57;2.92;;;;;;;5.36;57.61;97252.19;5075193;28;20041;-76
2021/04/15 06:05:34;;;;;;;3.15;2.80;;;;;;;5.52;57.04;97256.53;5074726;28;20472;-76
2021/04/15 06:08:08;;;;;;;3.90;3.13;;;;;;;5.72;56.88;97257.00;5074625;28;20063;-76
2021/04/15 06:10:39;;;;;;;4.63;2.70;;;;;;;5.91;57.49;97261.00;5075110;28;20041;-76
2021/04/15 06:13:12;;;;;;;3.20;2.90;;;;;;;6.08;58.08;97257.38;5073567;28;20036;-76
2021/04/15 06:15:54;;;;;;;3.30;2.80;;;;;;;6.28;57.42;97259.59;5073687;28;20481;-76
2021/04/15 06:18:38;;;;;;;4.55;2.72;;;;;;;6.57;52.78;97212.00;5074886;28;20049;-76
2021/04/15 06:21:04;;;;;;;5.13;2.72;;;;;;;6.79;57.06;97253.91;5074712;28;20107;-78
2021/04/15 06:23:47;;;;;;;4.35;2.65;;;;;;;6.94;52.83;97212.25;5073825;28;20400;-78
2021/04/15 06:26:30;;;;;;;3.22;2.72;;;;;;;7.10;54.72;97239.00;5064944;28;20530;-78
2021/04/15 06:29:02;;;;;;;7.45;2.97;;;;;;;7.37;54.98;97247.25;5074288;28;20477;-78
2021/04/15 06:31:33;;;;;;;3.85;2.97;;;;;;;7.71;55.15;97244.13;5074462;28;20400;-78
2021/04/15 06:34:02;;;;;;;3.88;3.10;;;;;;;7.83;54.07;97236.66;5063309;28;20040;-78
2021/04/15 06:36:39;;;;;;;4.35;2.45;;;;;;;7.91;49.93;97205.19;5073184;28;20031;-78
2021/04/15 06:39:16;;;;;;;3.35;2.53;;;;;;;7.86;50.32;97211.97;5074196;28;20040;-77
2021/04/15 06:42:00;;;;;;;3.78;2.50;;;;;;;7.81;47.38;97186.41;5074106;28;20036;-78
2021/04/15 06:45:09;;;;;;;4.05;2.70;;;;;;;7.73;47.61;97181.28;5064677;28;20032;-78
2021/04/15 06:48:23;;;;;;;3.38;2.60;;;;;;;7.60;47.40;97184.53;5068389;28;20033;-78
2021/04/15 06:51:19;;;;;;;4.95;2.63;;;;;;;7.64;48.02;97185.78;5073341;28;20111;-78
2021/04/15 06:54:08;;;;;;;5.38;2.90;;;;;;;7.58;48.73;97193.50;5061638;28;20505;-78
2021/04/15 06:57:14;;;;;;;3.33;2.50;;;;;;;7.56;47.53;97172.00;5062430;28;20053;-78
2021/04/15 07:00:06;;;;;;;4.70;2.67;;;;;;;7.78;51.69;97227.72;5073845;28;20037;-79
2021/04/15 07:02:41;;;;;;;3.83;2.13;;;;;;;8.71;53.25;97239.28;5073910;28;20036;-78
2021/04/15 07:05:30;;;;;;;6.00;2.45;;;;;;;9.75;44.37;97139.97;5056083;28;20040;-78
2021/04/15 07:08:02;;;;;;;3.70;2.92;;;;;;;9.75;45.36;97158.28;5073824;28;20032;-78
2021/04/15 07:10:44;;;;;;;8.85;2.97;;;;;;;9.63;46.22;97178.19;5073401;28;20126;-78
2021/04/15 07:13:40;;;;;;;5.40;2.70;;;;;;;9.36;45.32;97161.50;5073747;28;20036;-78
2021/04/15 07:16:43;;;;;;;3.67;2.90;;;;;;;9.31;44.51;97179.59;5073559;28;20036;-78
2021/04/15 07:19:22;;;;;;;4.38;2.72;;;;;;;9.11;45.32;97237.03;5073526;28;20464;-78
2021/04/15 07:22:14;;;;;;;3.95;2.60;;;;;;;8.99;45.08;97236.75;5072166;28;20048;-78
2021/04/15 07:25:18;;;;;;;3.50;2.70;;;;;;;8.77;44.50;97219.44;5072627;28;20389;-78
2021/04/15 07:28:17;;;;;;;2.50;2.30;;;;;;;8.77;44.93;97228.06;5072504;28;20052;-77
2021/04/15 07:31:09;;;;;;;3.40;2.60;;;;;;;8.88;44.96;97238.06;5055192;28;20488;-78
2021/04/15 07:34:06;;;;;;;5.15;2.78;;;;;;;8.94;43.46;97226.84;5073461;28;20044;-78
2021/04/15 07:36:39;;;;;;;4.18;2.80;;;;;;;8.89;45.10;97247.50;5073250;28;20033;-78
2021/04/15 07:39:16;;;;;;;4.07;2.53;;;;;;;8.81;43.49;97237.16;5073171;28;20032;-78
2021/04/15 07:42:12;;;;;;;2.60;2.40;;;;;;;8.77;43.98;97249.00;5073239;28;20032;-78
2021/04/15 07:45:02;;;;;;;2.92;2.65;;;;;;;8.85;44.52;97254.09;5048364;28;20055;-78
2021/04/15 07:48:04;;;;;;;3.42;2.42;;;;;;;9.03;48.79;97285.09;5054776;28;20040;-76
2021/04/15 07:50:48;;;;;;;2.60;2.30;;;;;;;9.87;47.12;97283.47;5058326;28;20036;-77
2021/04/15 07:53:23;;;;;;;;;;;;;;;10.97;44.18;97245.00;5073636;28;20485;-79
2021/04/15 07:56:20;;;;;;;5.13;2.67;;;;;;;11.25;39.66;97225.59;5073227;28;20384;-79
2021/04/15 07:59:19;;;;;;;4.57;3.10;;;;;;;10.84;39.91;97248.41;5072970;28;20052;-79
2021/04/15 08:02:06;;;;;;;4.18;2.97;;;;;;;10.47;41.27;97261.00;5072324;28;20075;-79
2021/04/15 08:04:57;;;;;;;3.08;2.78;;;;;;;10.35;41.09;97273.91;5072892;28;20469;-78
2021/04/15 08:07:44;;;;;;;3.08;2.78;;;;;;;10.29;40.92;97294.78;5071843;28;20377;-78
2021/04/15 08:10:32;;;;;;;3.05;2.80;;;;;;;10.30;41.22;97304.31;5071832;28;20048;-78
2021/04/15 08:13:13;;;;;;;3.97;3.03;;;;;;;10.43;41.41;97307.00;5061084;28;20036;-78
2021/04/15 08:16:01;;;;;;;3.88;3.00;;;;;;;10.56;41.74;97299.19;5054904;28;20033;-78
2021/04/15 08:18:49;;;;;;;2.92;2.50;;;;;;;10.62;40.08;97296.78;5072793;28;20572;-78
2021/04/15 08:21:37;;;;;;;3.65;2.85;;;;;;;10.81;40.79;97295.22;5072508;28;20025;-78
2021/04/15 08:24:58;;;;;;;5.97;2.83;;;;;;;10.89;40.35;97293.22;5073200;28;20044;-79
2021/04/15 08:27:25;;;;;;;3.42;2.65;;;;;;;10.96;41.18;97311.59;5015063;28;20038;-78
2021/04/15 08:30:14;;;;;;;3.00;2.80;;;;;;;11.06;38.97;97290.22;5071569;28;20071;-79
2021/04/15 08:33:17;;;;;;;3.72;2.67;;;;;;;10.95;39.15;97292.41;5073179;28;20043;-78
2021/04/15 08:35:53;;;;;;;2.70;2.50;;;;;;;11.04;38.60;97302.75;5072502;28;20370;-79
2021/04/15 08:38:22;;;;;;;3.40;2.70;;;;;;;10.96;39.35;97311.59;5054520;28;20028;-78
2021/04/15 08:40:56;;;;;;;3.13;2.72;;;;;;;10.89;39.55;97308.16;5072487;28;20392;-77
2021/04/15 08:43:43;;;;;;;3.42;2.80;;;;;;;10.75;38.70;97309.94;5072835;28;20465;-80
2021/04/15 08:46:19;;;;;;;2.65;2.45;;;;;;;10.89;38.51;97301.09;5054815;28;20416;-79
2021/04/15 08:48:45;;;;;;;3.28;2.97;;;;;;;10.94;39.39;97313.59;5072725;28;20048;-80
2021/04/15 08:51:36;;;;;;;4.05;3.03;;;;;;;10.47;37.18;97305.59;5071855;28;20037;-81
2021/04/15 08:54:11;;;;;;;3.10;2.85;;;;;;;10.43;38.43;97312.22;5072429;28;20044;-81
2021/04/15 08:57:09;;;;;;;3.97;2.90;;;;;;;10.45;37.85;97310.22;5072559;28;20041;-78
2021/04/15 08:59:56;;;;;;;2.85;2.50;;;;;;;9.65;37.14;97304.50;5055488;28;20044;-80
2021/04/15 09:02:28;;;;;;;3.20;2.75;;;;;;;9.24;38.95;97323.53;5076137;28;20048;-80
2021/04/15 09:05:12;;;;;;;3.50;2.35;;;;;;;9.54;39.45;97315.50;5076137;28;20056;-82
2021/04/15 09:08:06;;;;;;;2.50;2.30;;;;;;;9.77;38.39;97309.22;5045372;28;20043;-78
2021/04/15 09:10:44;;;;;;;2.57;2.37;;;;;;;9.58;38.94;97313.34;5075758;28;20044;-79
2021/04/15 09:13:39;;;;;;;2.85;2.60;;;;;;;9.20;38.45;97303.94;5075809;28;20469;-79
2021/04/15 09:16:08;;;;;;;;;;;;;;;8.89;38.42;97301.63;5076612;28;20039;-78
2021/04/15 09:18:53;;;;;;;2.50;2.20;;;;;;;8.65;39.78;97321.91;5060690;28;19912;-78
2021/04/15 09:21:44;;;;;;;2.97;2.22;;;;;;;8.31;39.17;97310.19;5057848;28;20075;-78
2021/04/15 09:24:21;;;;;;;3.22;2.33;;;;;;;8.08;39.84;97315.56;5056954;28;20037;-78
2021/04/15 09:27:06;;;;;;;2.75;2.13;;;;;;;7.90;40.11;97315.09;5075939;28;20393;-78
2021/04/15 09:30:06;;;;;;;2.70;2.50;;;;;;;8.27;40.47;97315.97;5082083;28;20032;-78
2021/04/15 09:32:44;;;;;;;4.05;2.60;;;;;;;9.06;40.14;97310.84;5043631;28;20052;-78
2021/04/15 09:35:22;;;;;;;2.63;1.90;;;;;;;9.22;38.92;97295.88;5074731;28;20048;-78
2021/04/15 09:38:15;;;;;;;2.42;1.92;;;;;;;8.98;38.76;97304.94;5075662;28;20051;-78
2021/04/15 09:40:44;;;;;;;2.85;2.10;;;;;;;8.64;39.25;97312.44;5067540;28;20048;-78
2021/04/15 09:43:18;;;;;;;3.35;2.05;;;;;;;8.33;38.73;97305.59;5074296;28;20400;-78
2021/04/15 09:46:14;;;;;;;2.03;1.80;;;;;;;8.13;38.64;97309.78;5075568;28;20408;-78
2021/04/15 09:48:59;;;;;;;2.22;1.90;;;;;;;8.00;39.30;97307.81;5061202;28;20275;-78
2021/04/15 09:52:00;;;;;;;2.58;2.03;;;;;;;7.84;38.78;97297.53;5074891;28;20044;-77
2021/04/15 09:54:57;;;;;;;2.05;1.83;;;;;;;7.81;38.76;97306.53;5075193;28;20044;-78
2021/04/15 09:57:32;;;;;;;2.03;1.65;;;;;;;7.83;38.87;97304.56;5063652;28;20421;-77
2021/04/15 10:00:25;;;;;;;1.95;1.80;;;;;;;7.65;39.00;97306.69;5074494;28;20056;-78
2021/04/15 10:03:16;;;;;;;2.22;2.03;;;;;;;7.36;40.26;97307.44;5074897;28;20024;-74
2021/04/15 10:06:01;;;;;;;1.85;1.75;;;;;;;7.89;41.58;97305.63;5074128;28;20049;-77
2021/04/15 10:08:46;;;;;;;5.82;2.63;;;;;;;8.00;40.36;97288.69;5075160;28;20047;-77
2021/04/15 10:11:31;;;;;;;3.58;2.45;;;;;;;7.97;39.91;97291.66;5056599;28;20056;-77
2021/04/15 10:14:35;;;;;;;3.40;2.30;;;;;;;8.00;39.26;97280.84;5056061;28;20048;-77
2021/04/15 10:17:01;;;;;;;4.65;2.65;;;;;;;8.57;40.02;97279.34;5060779;28;20044;-77
2021/04/15 10:20:08;;;;;;;2.85;2.42;;;;;;;8.61;38.53;97275.38;5073537;28;20040;-78
2021/04/15 10:22:37;;;;;;;4.18;2.13;;;;;;;8.21;38.88;97278.34;5073872;28;20063;-78
2021/04/15 10:25:13;;;;;;;2.58;2.10;;;;;;;8.03;38.77;97290.94;5073657;28;20051;-78
2021/04/15 10:28:08;;;;;;;4.50;2.10;;;;;;;7.93;38.49;97283.38;5056853;28;20040;-77
2021/04/15 10:31:10;;;;;;;2.87;1.93;;;;;;;7.92;39.14;97277.34;5045476;28;20035;-78
2021/04/15 10:33:51;;;;;;;2.92;2.20;;;;;;;7.80;39.12;97284.00;5074187;28;20044;-77
2021/04/15 10:36:35;;;;;;;2.25;2.05;;;;;;;7.77;39.33;97289.59;5073593;28;20037;-76
2021/04/15 10:39:19;;;;;;;2.33;2.03;;;;;;;7.90;39.42;97274.09;5073411;28;20053;-77
2021/04/15 10:42:23;;;;;;;2.38;2.17;;;;;;;7.86;38.87;97266.81;5074428;28;20029;-76
2021/04/15 10:45:20;;;;;;;2.20;2.00;;;;;;;7.66;38.82;97274.34;5059386;28;20039;-78
2021/04/15 10:48:07;;;;;;;2.30;2.10;;;;;;;7.49;39.05;97263.25;5074270;28;20029;-77
2021/04/15 10:50:55;;;;;;;1.90;1.80;;;;;;;7.45;38.00;97257.56;5064041;28;20033;-76
2021/04/15 10:53:45;;;;;;;2.20;2.00;;;;;;;7.53;38.56;97259.31;5066608;28;20049;-77
2021/04/15 10:56:22;;;;;;;3.50;2.05;;;;;;;8.05;39.83;97262.84;5074143;28;20044;-77
2021/04/15 10:58:51;;;;;;;2.35;2.05;;;;;;;8.19;38.65;97255.97;5073719;28;20033;-77
2021/04/15 11:01:29;;;;;;;2.83;1.77;;;;;;;8.04;38.58;97255.97;5073910;28;20481;-77
2021/04/15 11:03:59;;;;;;;2.10;1.88;;;;;;;7.74;38.27;97258.59;5073651;28;20040;-77
2021/04/15 11:06:53;;;;;;;2.65;1.60;;;;;;;7.78;38.39;97251.22;5073751;28;20028;-78
2021/04/15 11:09:28;;;;;;;2.00;1.80;;;;;;;8.10;38.62;97255.25;5072738;28;20068;-77
2021/04/15 11:11:54;;;;;;;1.77;1.58;;;;;;;8.45;38.35;97237.22;5073596;28;20024;-77
2021/04/15 11:14:22;;;;;;;3.10;1.90;;;;;;;8.61;37.98;97237.00;5072644;28;20094;-77
2021/04/15 11:16:52;;;;;;;2.25;1.65;;;;;;;8.43;37.24;97237.38;5072569;28;20516;-78
2021/04/15 11:19:24;;;;;;;2.05;1.88;;;;;;;8.09;35.97;97228.34;5073412;28;20468;-78
2021/04/15 11:21:51;;;;;;;2.03;1.52;;;;;;;7.84;37.44;97238.25;5073568;28;20047;-77
2021/04/15 11:24:33;;;;;;;3.03;1.73;;;;;;;7.73;37.18;97231.69;5073121;28;20040;-78
2021/04/15 11:27:09;;;;;;;2.03;1.77;;;;;;;7.58;36.68;97238.72;5073370;28;20039;-79
2021/04/15 11:29:35;;;;;;;2.08;1.92;;;;;;;7.60;37.59;97241.13;5073451;28;20033;-78
2021/04/15 11:32:48;;;;;;;2.15;1.50;;;;;;;8.23;36.19;97221.47;5073520;28;20377;-78
2021/04/15 11:35:20;;;;;;;2.05;1.67;;;;;;;9.01;36.41;97219.06;5051922;28;20036;-78
2021/04/15 11:37:49;;;;;;;1.70;1.60;;;;;;;9.16;36.41;97226.81;5073552;28;20036;-78
2021/04/15 11:40:46;;;;;;;2.38;1.52;;;;;;;8.83;35.65;97223.91;5072956;28;20024;-78
2021/04/15 11:43:25;;;;;;;2.72;1.60;;;;;;;8.54;36.42;97234.28;5071719;28;20047;-78
2021/04/15 11:45:53;;;;;;;2.30;2.03;;;;;;;8.27;36.65;97235.78;5073130;28;20044;-78
2021/04/15 11:48:27;;;;;;;2.40;2.03;;;;;;;7.94;38.21;97253.66;5055252;28;20484;-77
2021/04/15 11:51:20;;;;;;;4.35;2.25;;;;;;;7.59;39.31;97261.22;5073115;28;20032;-78
2021/04/15 11:53:50;;;;;;;2.95;2.10;;;;;;;7.39;38.00;97253.09;5073177;28;20059;-79
2021/04/15 11:56:23;;;;;;;2.65;1.90;;;;;;;7.27;38.56;97254.50;5073770;28;20047;-79
2021/04/15 11:58:50;;;;;;;5.57;2.10;;;;;;;7.08;38.61;97251.41;5073120;28;20043;-79
2021/04/15 12:01:34;;;;;;;3.47;2.00;;;;;;;7.22;39.23;97256.81;5073032;28;20404;-78
2021/04/15 12:04:07;;;;;;;2.20;1.90;;;;;;;7.26;39.06;97251.06;5072993;28;20032;-78
2021/04/15 12:06:43;;;;;;;2.13;2.00;;;;;;;7.38;39.27;97253.25;5072818;28;20055;-78
2021/04/15 12:09:15;;;;;;;1.90;1.75;;;;;;;7.50;38.89;97249.25;5073371;28;20388;-78
2021/04/15 12:11:56;;;;;;;1.88;1.50;;;;;;;7.68;38.13;97252.28;5072302;28;20049;-79
2021/04/15 12:14:24;;;;;;;2.22;2.00;;;;;;;7.77;38.49;97246.97;5072077;28;20048;-79
2021/04/15 12:17:12;;;;;;;2.10;1.77;;;;;;;8.20;36.89;97237.50;5073128;28;20044;-78
2021/04/15 12:20:02;;;;;;;3.17;1.85;;;;;;;8.82;36.95;97227.50;5072709;28;20032;-79
2021/04/15 12:22:40;;;;;;;2.30;1.88;;;;;;;9.43;36.55;97211.28;5072519;28;20040;-79
2021/04/15 12:25:25;;;;;;;2.78;1.80;;;;;;;10.05;35.15;97201.75;5073478;28;20043;-79
2021/04/15 12:28:02;;;;;;;1.45;1.35;;;;;;;10.39;33.30;97206.13;5072041;28;20044;-79
2021/04/15 12:30:31;;;;;;;1.50;1.40;;;;;;;10.28;34.37;97217.97;5071786;28;20060;-79
2021/04/15 12:33:09;;;;;;;1.92;1.60;;;;;;;10.37;33.02;97205.50;5071278;28;20048;-79
2021/04/15 12:35:44;;;;;;;1.73;1.60;;;;;;;10.69;34.08;97211.06;5056938;28;20465;-79